Time;durP1;ratioP1;P1;durP2;ratioP2;P2;SDS_P1;SDS_P2;PMS_P1;PMS_P2;Temp;Humidity;BMP_temperature;BMP_pressure;BME280_temperature;BME280_humidity;BME280_pressure;Samples;Min_cycle;Max_cycle;Signal;HPM_P1;HPM_P2
2022/05/01 00:01:40;;;;;;;1.38;1.20;;;12.80;54.30;;;;;;5154276;27;20426;-66
2022/05/01 00:04:05;;;;;;;1.40;1.30;;;12.80;54.30;;;;;;5135723;27;20034;-65
2022/05/01 00:06:33;;;;;;;2.22;1.83;;;12.90;54.30;;;;;;5154065;27;20493;-69
2022/05/01 00:09:00;;;;;;;1.63;1.52;;;12.90;54.30;;;;;;5153865;27;20042;-69
2022/05/01 00:11:27;;;;;;;2.08;1.52;;;12.80;54.30;;;;;;5135353;27;20087;-67
2022/05/01 00:13:53;;;;;;;2.45;1.63;;;12.80;54.30;;;;;;5153898;27;20533;-69
2022/05/01 00:16:19;;;;;;;2.28;1.55;;;12.80;54.30;;;;;;5135293;27;20117;-64
2022/05/01 00:18:47;;;;;;;2.50;1.67;;;12.80;54.30;;;;;;5135212;27;20117;-64
2022/05/01 00:21:16;;;;;;;1.42;1.17;;;12.80;54.30;;;;;;5135334;27;20045;-68
2022/05/01 00:23:41;;;;;;;2.55;1.63;;;12.80;54.30;;;;;;5153617;27;20031;-65
2022/05/01 00:26:08;;;;;;;1.88;1.67;;;12.80;54.40;;;;;;5135448;27;20466;-64
2022/05/01 00:28:36;;;;;;;1.63;1.20;;;12.80;54.40;;;;;;5153893;27;20039;-64
2022/05/01 00:31:06;;;;;;;1.58;1.45;;;12.80;54.40;;;;;;5153890;27;20423;-64
2022/05/01 00:36:26;;;;;;;2.15;1.60;;;12.80;54.40;;;;;;5147346;27;20054;-68
2022/05/01 00:38:53;;;;;;;2.13;1.90;;;12.80;55.10;;;;;;5152436;27;20050;-64
2022/05/01 00:41:23;;;;;;;1.80;1.33;;;12.80;54.40;;;;;;5153385;27;20130;-65
2022/05/01 00:44:11;;;;;;;2.38;1.42;;;12.80;54.50;;;;;;5153430;27;20087;-68
2022/05/01 00:46:40;;;;;;;2.67;1.70;;;12.80;54.50;;;;;;5152352;27;20043;-71
2022/05/01 00:49:08;;;;;;;2.42;1.70;;;12.80;54.50;;;;;;5153385;27;20291;-68
2022/05/01 00:51:41;;;;;;;1.50;1.30;;;12.70;54.40;;;;;;5153710;27;20053;-69
2022/05/01 00:54:07;;;;;;;2.85;1.58;;;12.70;54.40;;;;;;5153390;27;20087;-66
2022/05/01 00:56:41;;;;;;;1.65;1.50;;;12.70;54.40;;;;;;5153487;27;20030;-64
2022/05/01 00:59:08;;;;;;;1.88;1.63;;;12.70;54.50;;;;;;5152197;27;20260;-68
2022/05/01 01:01:35;;;;;;;2.33;1.83;;;12.70;54.50;;;;;;5153342;27;20039;-64
2022/05/01 01:04:01;;;;;;;1.55;1.45;;;12.80;54.60;;;;;;5152092;27;20099;-64
2022/05/01 01:06:26;;;;;;;2.67;2.05;;;12.70;54.60;;;;;;5151667;27;20048;-68
2022/05/01 01:08:52;;;;;;;2.60;1.85;;;12.70;54.60;;;;;;5153523;27;20230;-69
2022/05/01 01:11:18;;;;;;;1.80;1.65;;;12.70;54.60;;;;;;5153179;27;20050;-68
2022/05/01 01:13:47;;;;;;;1.98;1.77;;;12.70;54.70;;;;;;5152197;27;20047;-68
2022/05/01 01:16:13;;;;;;;5.75;2.20;;;12.70;54.70;;;;;;5153567;27;20038;-64
2022/05/01 01:18:39;;;;;;;5.05;2.42;;;12.70;54.70;;;;;;5152203;27;20042;-69
2022/05/01 01:21:09;;;;;;;2.38;1.60;;;12.80;54.80;;;;;;5151715;27;20042;-64
2022/05/01 01:23:35;;;;;;;2.88;2.20;;;12.70;54.80;;;;;;5152220;27;20046;-64
2022/05/01 01:26:01;;;;;;;2.67;1.70;;;12.70;54.90;;;;;;5151773;27;20042;-68
2022/05/01 01:28:28;;;;;;;2.70;1.90;;;12.70;54.90;;;;;;5153210;27;20118;-64
2022/05/01 01:33:43;;;;;;;2.85;2.65;;;12.70;54.90;;;;;;5152946;27;20103;-64
2022/05/01 01:36:10;;;;;;;2.25;2.03;;;12.70;54.90;;;;;;5153063;27;20431;-67
2022/05/01 01:38:39;;;;;;;2.88;2.20;;;12.70;55.00;;;;;;5152067;27;20341;-69
2022/05/01 01:41:08;;;;;;;2.30;2.10;;;12.70;55.00;;;;;;5151269;27;20051;-68
2022/05/01 01:43:36;;;;;;;3.72;2.70;;;12.70;55.00;;;;;;5152959;27;20070;-64
2022/05/01 01:46:02;;;;;;;3.17;1.83;;;12.70;55.00;;;;;;5152775;27;20049;-70
2022/05/01 01:48:28;;;;;;;2.63;2.42;;;12.70;55.00;;;;;;5155400;27;20113;-64
2022/05/01 01:51:04;;;;;;;2.13;1.92;;;12.60;55.00;;;;;;5156725;27;20513;-65
2022/05/01 01:53:32;;;;;;;2.33;2.13;;;12.70;55.10;;;;;;5156860;27;20110;-66
2022/05/01 01:55:59;;;;;;;2.60;2.40;;;12.60;55.00;;;;;;5155278;27;20049;-64
2022/05/01 01:58:25;;;;;;;1.85;1.75;;;12.60;55.00;;;;;;5155240;27;20586;-69
2022/05/01 02:00:51;;;;;;;2.22;2.00;;;12.60;55.10;;;;;;5156468;27;20035;-68
2022/05/01 02:03:18;;;;;;;2.90;2.03;;;12.70;55.20;;;;;;5156627;27;20474;-64
2022/05/01 02:05:44;;;;;;;3.20;2.22;;;12.60;55.10;;;;;;5156600;27;20090;-68
2022/05/01 02:08:13;;;;;;;2.88;2.20;;;12.60;55.10;;;;;;5156275;27;20039;-69
2022/05/01 02:10:39;;;;;;;3.10;2.30;;;12.60;55.20;;;;;;5157074;27;20497;-64
2022/05/01 02:13:06;;;;;;;2.55;2.00;;;12.60;55.20;;;;;;5155864;27;20095;-68
2022/05/01 02:15:33;;;;;;;2.33;2.10;;;12.60;55.20;;;;;;5155633;27;20375;-64
2022/05/01 02:18:00;;;;;;;3.42;2.53;;;12.60;55.20;;;;;;5155181;27;20039;-69
2022/05/01 02:20:27;;;;;;;2.80;2.60;;;12.60;55.20;;;;;;5154768;27;20046;-64
2022/05/01 02:22:53;;;;;;;3.10;2.80;;;12.60;55.30;;;;;;5154945;27;20129;-69
2022/05/01 02:25:21;;;;;;;2.75;2.55;;;12.60;55.30;;;;;;5156114;27;20035;-65
2022/05/01 02:27:47;;;;;;;3.33;3.00;;;12.60;55.30;;;;;;5156411;27;20031;-64
2022/05/01 02:30:14;;;;;;;2.42;2.22;;;12.60;55.30;;;;;;5156040;27;20474;-66
2022/05/01 02:32:40;;;;;;;2.30;1.90;;;12.60;55.40;;;;;;5154538;27;20095;-64
2022/05/01 02:35:07;;;;;;;2.78;2.08;;;12.60;55.40;;;;;;5155770;27;20043;-64
2022/05/01 02:37:33;;;;;;;3.25;2.30;;;12.60;55.40;;;;;;5154448;27;20070;-64
2022/05/01 02:39:58;;;;;;;2.35;2.08;;;12.60;55.40;;;;;;5155819;27;20078;-69
2022/05/01 02:42:24;;;;;;;2.67;2.47;;;12.60;55.40;;;;;;5155437;27;20130;-69
2022/05/01 02:44:50;;;;;;;2.65;2.45;;;12.60;55.40;;;;;;5155769;27;20107;-64
2022/05/01 02:47:18;;;;;;;3.38;2.05;;;12.50;55.40;;;;;;5155612;27;20035;-65
2022/05/01 02:49:47;;;;;;;2.80;2.53;;;12.50;55.40;;;;;;5154401;27;20046;-64
2022/05/01 02:52:12;;;;;;;2.45;2.25;;;12.60;55.50;;;;;;5155590;27;20039;-66
2022/05/01 02:54:38;;;;;;;2.97;2.35;;;12.60;55.50;;;;;;5155390;27;20039;-64
2022/05/01 02:57:07;;;;;;;3.60;2.47;;;12.60;55.50;;;;;;5155351;27;20039;-68
2022/05/01 02:59:32;;;;;;;2.22;2.03;;;12.60;55.50;;;;;;5155201;27;20078;-66
2022/05/01 03:01:58;;;;;;;2.63;2.42;;;12.60;55.50;;;;;;5155478;27;20073;-64
2022/05/01 03:04:24;;;;;;;2.30;2.10;;;12.60;55.50;;;;;;5155096;27;20054;-66
2022/05/01 03:06:50;;;;;;;3.22;2.60;;;12.50;55.50;;;;;;5155283;27;20038;-64
2022/05/01 03:09:15;;;;;;;3.35;2.38;;;12.50;55.50;;;;;;5153815;27;20035;-64
2022/05/01 03:11:41;;;;;;;3.88;2.70;;;12.50;55.50;;;;;;5153862;27;20039;-64
2022/05/01 03:14:09;;;;;;;2.40;2.00;;;12.50;55.50;;;;;;5153994;27;20166;-69
2022/05/01 03:16:36;;;;;;;2.80;2.50;;;12.50;55.50;;;;;;5154978;27;20030;-69
2022/05/01 03:22:19;;;;;;;2.90;2.70;;;12.60;55.60;;;;;;5153717;27;20045;-69
2022/05/01 03:24:35;;;;;;;2.22;2.03;;;12.50;55.60;;;;;;5153349;27;20046;-67
2022/05/01 03:27:01;;;;;;;3.70;2.53;;;12.50;55.60;;;;;;5155020;27;20070;-65
2022/05/01 03:29:26;;;;;;;3.30;2.10;;;12.50;55.60;;;;;;5154859;27;20189;-65
2022/05/01 03:31:55;;;;;;;3.72;2.17;;;12.50;55.60;;;;;;5154729;27;20038;-68
2022/05/01 03:34:25;;;;;;;2.50;2.30;;;12.50;55.70;;;;;;5154633;27;20046;-69
2022/05/01 03:36:54;;;;;;;2.50;2.22;;;12.50;55.70;;;;;;5153386;27;20030;-68
2022/05/01 03:39:20;;;;;;;3.00;2.70;;;12.40;55.60;;;;;;5154449;27;20046;-69
2022/05/01 03:41:47;;;;;;;3.10;2.67;;;12.50;55.70;;;;;;5153177;27;20435;-64
2022/05/01 03:44:13;;;;;;;3.42;2.63;;;12.50;55.70;;;;;;5153226;27;20046;-64
2022/05/01 03:46:38;;;;;;;2.60;2.30;;;12.50;55.70;;;;;;5154371;27;20035;-67
2022/05/01 03:49:06;;;;;;;2.38;2.17;;;12.50;55.70;;;;;;5154459;27;20078;-64
2022/05/01 03:51:33;;;;;;;2.42;2.22;;;12.50;55.70;;;;;;5152928;27;20533;-68
2022/05/01 03:54:02;;;;;;;2.20;2.00;;;12.50;55.70;;;;;;5153028;27;20375;-66
2022/05/01 03:56:34;;;;;;;2.30;2.10;;;12.50;55.70;;;;;;5153119;27;20474;-68
2022/05/01 03:59:00;;;;;;;2.88;2.53;;;12.50;55.70;;;;;;5152753;27;20470;-64
2022/05/01 04:01:26;;;;;;;3.65;2.08;;;12.50;55.70;;;;;;5153832;27;20118;-65
2022/05/01 04:03:53;;;;;;;3.13;2.38;;;12.50;55.70;;;;;;5152915;27;20083;-69
2022/05/01 04:06:19;;;;;;;2.03;1.75;;;12.50;55.70;;;;;;5152915;27;20042;-68
2022/05/01 04:08:44;;;;;;;2.92;2.30;;;12.50;55.70;;;;;;5154338;27;20043;-67
2022/05/01 04:11:10;;;;;;;2.75;2.38;;;12.50;55.70;;;;;;5152207;27;20126;-65
2022/05/01 04:13:36;;;;;;;2.53;2.33;;;12.50;55.70;;;;;;5152747;27;20107;-69
2022/05/01 04:16:03;;;;;;;2.08;1.92;;;12.50;55.70;;;;;;5153918;27;20038;-68
2022/05/01 04:18:31;;;;;;;1.83;1.55;;;12.50;55.70;;;;;;5153986;27;20091;-66
2022/05/01 04:20:58;;;;;;;2.67;2.20;;;12.50;55.70;;;;;;5152463;27;20042;-64
2022/05/01 04:23:24;;;;;;;2.95;2.65;;;12.50;55.70;;;;;;5153769;27;20050;-64
2022/05/01 04:25:50;;;;;;;1.73;1.60;;;12.50;55.60;;;;;;5153727;27;20038;-68
2022/05/01 04:28:16;;;;;;;3.17;2.45;;;12.50;55.70;;;;;;5152464;27;20038;-64
2022/05/01 04:30:46;;;;;;;2.30;1.83;;;12.50;55.70;;;;;;5152837;27;20575;-68
2022/05/01 04:33:14;;;;;;;2.30;2.05;;;12.50;55.70;;;;;;5152681;27;20054;-68
2022/05/01 04:35:43;;;;;;;2.90;2.60;;;12.50;55.60;;;;;;5153624;27;20038;-64
2022/05/01 04:38:14;;;;;;;2.60;2.08;;;12.50;55.70;;;;;;5152304;27;20045;-64
2022/05/01 04:40:43;;;;;;;2.50;2.30;;;12.50;55.70;;;;;;5152007;27;20100;-65
2022/05/01 04:43:14;;;;;;;2.92;2.47;;;12.50;55.70;;;;;;5153435;27;20083;-69
2022/05/01 04:45:42;;;;;;;;;;;12.50;55.70;;;;;;5153982;27;20049;-65
2022/05/01 04:48:08;;;;;;;3.13;2.53;;;12.50;55.80;;;;;;5153408;27;19914;-71
2022/05/01 04:50:35;;;;;;;2.42;2.22;;;12.50;55.70;;;;;;5152158;27;20103;-68
2022/05/01 04:53:09;;;;;;;3.03;2.75;;;12.50;55.80;;;;;;5152411;27;20244;-69
2022/05/01 04:55:36;;;;;;;3.13;2.92;;;12.50;55.80;;;;;;5153618;27;20038;-69
2022/05/01 04:58:05;;;;;;;3.65;3.10;;;12.50;55.80;;;;;;5152071;27;20043;-68
2022/05/01 05:00:31;;;;;;;3.85;3.42;;;12.50;55.80;;;;;;5153337;27;20043;-66
2022/05/01 05:02:57;;;;;;;3.17;2.78;;;12.50;55.80;;;;;;5152273;27;20049;-64
2022/05/01 05:05:24;;;;;;;3.38;2.70;;;12.50;55.80;;;;;;5152371;27;20039;-68
2022/05/01 05:07:50;;;;;;;4.28;2.75;;;12.50;55.80;;;;;;5153296;27;20073;-69
2022/05/01 05:10:17;;;;;;;3.65;2.85;;;12.50;55.80;;;;;;5153470;27;20125;-68
2022/05/01 05:12:47;;;;;;;3.38;2.95;;;12.50;55.80;;;;;;5153400;27;20422;-64
2022/05/01 05:15:16;;;;;;;2.67;2.35;;;12.50;55.80;;;;;;5152354;27;20214;-65
2022/05/01 05:17:43;;;;;;;2.83;2.63;;;12.50;55.80;;;;;;5153098;27;20126;-64
2022/05/01 05:20:11;;;;;;;4.63;2.78;;;12.50;55.90;;;;;;5153391;27;20047;-68
2022/05/01 05:22:40;;;;;;;3.35;3.05;;;12.50;55.80;;;;;;5155688;27;20034;-69
2022/05/01 05:25:09;;;;;;;3.70;3.38;;;12.50;55.90;;;;;;5155928;27;20030;-64
2022/05/01 05:27:35;;;;;;;3.50;3.20;;;12.50;55.90;;;;;;5156116;27;20038;-64
2022/05/01 05:30:01;;;;;;;4.97;3.10;;;12.50;55.90;;;;;;5156088;27;20107;-69
2022/05/01 05:32:26;;;;;;;2.92;2.67;;;12.50;55.90;;;;;;5156004;27;20411;-68
2022/05/01 05:34:53;;;;;;;3.33;3.00;;;12.50;55.90;;;;;;5157233;27;20478;-65
2022/05/01 05:37:19;;;;;;;3.53;3.22;;;12.50;55.90;;;;;;5157052;27;20038;-69
2022/05/01 05:39:45;;;;;;;3.42;3.10;;;12.50;55.90;;;;;;5155762;27;20500;-64
2022/05/01 05:42:11;;;;;;;3.80;3.42;;;12.50;55.80;;;;;;5155411;27;20046;-65
2022/05/01 05:44:38;;;;;;;4.20;3.60;;;12.50;55.90;;;;;;5156784;27;20061;-69
2022/05/01 05:47:04;;;;;;;3.15;2.88;;;12.50;55.90;;;;;;5155738;27;20042;-69
2022/05/01 05:49:31;;;;;;;4.00;3.60;;;12.50;55.90;;;;;;5156956;27;20093;-68
2022/05/01 05:51:57;;;;;;;3.72;3.42;;;12.50;55.90;;;;;;5156657;27;20090;-69
2022/05/01 05:54:27;;;;;;;3.75;3.45;;;12.50;55.90;;;;;;5155576;27;20043;-69
2022/05/01 05:56:52;;;;;;;4.30;3.22;;;12.50;55.80;;;;;;5156688;27;20053;-68
2022/05/01 05:59:18;;;;;;;3.17;2.97;;;12.50;55.80;;;;;;5156742;27;20038;-67
2022/05/01 06:01:43;;;;;;;3.67;3.38;;;12.60;55.90;;;;;;5155249;27;20034;-69
2022/05/01 06:04:09;;;;;;;4.00;3.58;;;12.60;55.80;;;;;;5155343;27;20043;-66
2022/05/01 06:06:35;;;;;;;4.93;2.97;;;12.60;55.80;;;;;;5156876;27;20043;-64
2022/05/01 06:09:04;;;;;;;3.30;3.00;;;12.60;55.80;;;;;;5156528;27;20035;-68
2022/05/01 06:11:30;;;;;;;3.78;2.83;;;12.60;55.70;;;;;;5155163;27;20048;-68
2022/05/01 06:13:55;;;;;;;3.67;3.35;;;12.70;55.80;;;;;;5156341;27;20023;-64
2022/05/01 06:16:21;;;;;;;3.28;2.97;;;12.60;55.70;;;;;;5155090;27;20034;-69
2022/05/01 06:18:49;;;;;;;3.70;3.13;;;12.70;55.70;;;;;;5156144;27;20034;-67
2022/05/01 06:21:15;;;;;;;3.55;3.10;;;12.70;55.70;;;;;;5154651;27;20130;-69
2022/05/01 06:23:41;;;;;;;3.88;3.45;;;12.70;55.60;;;;;;5156246;27;20394;-67
2022/05/01 06:26:07;;;;;;;3.17;2.88;;;12.70;55.60;;;;;;5154173;27;20572;-64
2022/05/01 06:28:33;;;;;;;2.88;2.42;;;12.70;55.60;;;;;;5154763;27;20055;-64
2022/05/01 06:31:03;;;;;;;5.20;3.67;;;12.70;55.50;;;;;;5156008;27;20115;-69
2022/05/01 06:33:30;;;;;;;3.15;2.85;;;12.70;55.50;;;;;;5154166;27;20520;-69
2022/05/01 06:35:56;;;;;;;3.03;2.83;;;12.70;55.50;;;;;;5154542;27;20486;-69
2022/05/01 06:38:22;;;;;;;2.90;2.60;;;12.80;55.40;;;;;;5155854;27;20188;-64
2022/05/01 06:40:48;;;;;;;4.05;2.92;;;12.80;55.40;;;;;;5155436;27;20049;-69
2022/05/01 06:43:17;;;;;;;3.20;2.85;;;12.80;55.30;;;;;;5154490;27;20126;-68
2022/05/01 06:45:42;;;;;;;3.38;3.08;;;12.80;55.20;;;;;;5154463;27;20035;-69
2022/05/01 06:48:10;;;;;;;3.45;2.97;;;12.90;55.30;;;;;;5154355;27;20117;-67
2022/05/01 06:50:37;;;;;;;2.47;2.28;;;12.90;55.20;;;;;;5155703;27;20027;-69
2022/05/01 06:53:03;;;;;;;3.30;2.90;;;12.90;55.10;;;;;;5156094;27;20109;-68
2022/05/01 06:55:29;;;;;;;3.05;2.50;;;12.90;55.10;;;;;;5154372;27;20035;-69
2022/05/01 06:57:55;;;;;;;3.53;3.22;;;13.00;55.00;;;;;;5154091;27;20042;-64
2022/05/01 07:00:24;;;;;;;2.40;2.17;;;13.00;55.00;;;;;;5155395;27;20074;-66
2022/05/01 07:02:52;;;;;;;3.35;3.03;;;13.00;54.80;;;;;;5154234;27;20045;-69
2022/05/01 07:05:18;;;;;;;6.38;3.28;;;13.00;54.90;;;;;;5155475;27;20135;-70
2022/05/01 07:07:45;;;;;;;3.60;3.25;;;13.00;54.80;;;;;;5153948;27;20520;-64
2022/05/01 07:10:12;;;;;;;4.65;3.28;;;13.00;54.80;;;;;;5155361;27;20375;-69
2022/05/01 07:12:38;;;;;;;2.97;2.72;;;13.00;54.80;;;;;;5155133;27;20044;-66
2022/05/01 07:15:05;;;;;;;2.78;2.30;;;13.10;54.80;;;;;;5155144;27;20035;-66
2022/05/01 07:17:31;;;;;;;3.47;2.97;;;13.10;54.70;;;;;;5153930;27;20045;-66
2022/05/01 07:19:57;;;;;;;2.40;2.15;;;13.10;54.70;;;;;;5153862;27;20409;-64
2022/05/01 07:22:22;;;;;;;3.33;2.15;;;13.20;54.60;;;;;;5155050;27;20122;-66
2022/05/01 07:24:48;;;;;;;3.30;1.65;;;13.20;54.40;;;;;;5154998;27;20493;-68
2022/05/01 07:27:14;;;;;;;2.58;2.38;;;13.20;54.40;;;;;;5153793;27;20077;-70
2022/05/01 07:29:39;;;;;;;3.50;2.08;;;13.20;54.30;;;;;;5153558;27;20141;-65
2022/05/01 07:32:06;;;;;;;2.53;2.33;;;13.30;54.20;;;;;;5153335;27;20050;-64
2022/05/01 07:34:31;;;;;;;2.05;1.85;;;13.30;54.20;;;;;;5154860;27;20042;-64
2022/05/01 07:36:57;;;;;;;4.20;2.75;;;13.30;54.10;;;;;;5153680;27;20117;-64
2022/05/01 07:39:22;;;;;;;2.85;2.33;;;13.40;54.10;;;;;;5154729;27;20424;-65
2022/05/01 07:41:48;;;;;;;2.67;2.25;;;13.40;54.10;;;;;;5154429;27;20050;-68
2022/05/01 07:44:17;;;;;;;2.25;2.05;;;13.40;54.00;;;;;;5152363;27;20405;-69
2022/05/01 07:46:43;;;;;;;3.15;2.17;;;13.40;53.90;;;;;;5154381;27;20045;-69
2022/05/01 07:49:12;;;;;;;2.80;2.60;;;13.40;53.80;;;;;;5153028;27;20148;-70
2022/05/01 07:51:38;;;;;;;3.47;2.13;;;13.50;53.90;;;;;;5154836;27;20088;-65
2022/05/01 07:54:05;;;;;;;2.42;2.20;;;13.50;53.90;;;;;;5153068;27;20088;-70
2022/05/01 07:56:31;;;;;;;2.72;2.00;;;13.50;53.70;;;;;;5153168;27;20038;-69
2022/05/01 07:58:58;;;;;;;2.40;2.20;;;13.60;53.60;;;;;;5154152;27;20042;-65
2022/05/01 08:01:24;;;;;;;2.53;2.13;;;13.60;53.50;;;;;;5154131;27;20046;-64
2022/05/01 08:06:35;;;;;;;2.60;2.10;;;13.60;53.40;;;;;;5154032;27;20503;-64
2022/05/01 08:09:05;;;;;;;2.13;1.92;;;13.60;53.40;;;;;;5154205;27;20062;-73
2022/05/01 08:11:31;;;;;;;2.42;2.22;;;13.70;53.30;;;;;;5152893;27;20049;-64
2022/05/01 08:14:00;;;;;;;2.45;1.95;;;13.70;53.30;;;;;;5151928;27;20080;-65
2022/05/01 08:16:26;;;;;;;2.22;2.03;;;13.70;53.20;;;;;;5152886;27;20141;-68
2022/05/01 08:21:37;;;;;;;2.45;1.75;;;13.70;53.10;;;;;;5152340;27;20074;-64
2022/05/01 08:24:03;;;;;;;2.50;2.30;;;13.80;53.00;;;;;;5153991;27;20131;-69
2022/05/01 08:26:34;;;;;;;2.13;1.92;;;13.80;52.90;;;;;;5152605;27;20310;-64
2022/05/01 08:29:02;;;;;;;;;;;13.90;52.90;;;;;;5154079;27;20035;-69
2022/05/01 08:31:28;;;;;;;2.70;2.28;;;14.00;53.00;;;;;;5153775;27;19915;-64
2022/05/01 08:33:54;;;;;;;2.40;2.20;;;13.90;52.60;;;;;;5154023;27;20378;-65
2022/05/01 08:36:20;;;;;;;1.88;1.70;;;14.00;52.70;;;;;;5152421;27;20438;-64
2022/05/01 08:38:46;;;;;;;1.90;1.80;;;14.00;52.60;;;;;;5153692;27;20037;-69
2022/05/01 08:41:11;;;;;;;2.03;1.83;;;14.00;52.70;;;;;;5152894;27;20435;-69
2022/05/01 08:43:38;;;;;;;2.75;2.00;;;14.00;52.40;;;;;;5152235;27;20050;-71
2022/05/01 08:46:27;;;;;;;1.70;1.50;;;14.00;52.30;;;;;;5153517;27;20042;-64
2022/05/01 08:49:05;;;;;;;1.88;1.67;;;14.10;52.20;;;;;;5152406;27;20035;-64
2022/05/01 08:51:33;;;;;;;2.55;1.77;;;14.10;52.00;;;;;;5152497;27;20053;-64
2022/05/01 08:54:04;;;;;;;2.35;1.98;;;14.10;51.90;;;;;;5152481;27;20074;-64
2022/05/01 08:56:33;;;;;;;2.47;1.52;;;14.20;51.90;;;;;;5154699;27;20100;-64
2022/05/01 08:59:00;;;;;;;1.80;1.60;;;14.20;51.70;;;;;;5156742;27;20050;-68
2022/05/01 09:01:28;;;;;;;3.03;2.05;;;14.20;51.60;;;;;;5156296;27;20043;-65
2022/05/01 09:03:54;;;;;;;3.05;1.40;;;14.20;51.60;;;;;;5156706;27;20091;-68
2022/05/01 09:06:20;;;;;;;2.30;1.67;;;14.20;51.50;;;;;;5156631;27;20478;-66
2022/05/01 09:08:46;;;;;;;2.50;1.77;;;14.20;51.40;;;;;;5156297;27;20090;-64
2022/05/01 09:14:00;;;;;;;1.90;1.50;;;14.20;51.40;;;;;;5157350;27;20087;-66
2022/05/01 09:16:25;;;;;;;1.80;1.48;;;14.30;52.10;;;;;;5157317;27;20545;-65
2022/05/01 09:18:51;;;;;;;2.45;1.65;;;14.30;51.40;;;;;;5156456;27;20037;-69
2022/05/01 09:21:20;;;;;;;1.50;1.33;;;14.30;51.30;;;;;;5155840;27;20066;-68
2022/05/01 09:23:47;;;;;;;3.15;1.65;;;14.30;51.20;;;;;;5156165;27;20031;-64
2022/05/01 09:26:15;;;;;;;1.70;1.60;;;14.30;51.80;;;;;;5156193;27;20118;-64
2022/05/01 09:28:48;;;;;;;2.15;1.58;;;14.40;51.00;;;;;;5157266;27;20121;-68
2022/05/01 09:31:14;;;;;;;2.78;1.27;;;14.40;51.00;;;;;;5157121;27;20046;-67
2022/05/01 09:33:40;;;;;;;2.58;1.80;;;14.40;50.90;;;;;;5155926;27;20776;-64
2022/05/01 09:36:07;;;;;;;2.63;1.73;;;14.40;50.90;;;;;;5155704;27;20057;-65
2022/05/01 09:38:33;;;;;;;2.05;1.70;;;14.40;50.80;;;;;;5156067;27;20493;-68
2022/05/01 09:41:01;;;;;;;2.55;2.20;;;14.40;50.80;;;;;;5156881;27;20051;-69
2022/05/01 09:46:24;;;;;;;1.95;1.40;;;14.50;50.80;;;;;;5130250;27;20379;-62
2022/05/01 09:49:12;;;;;;;2.25;1.60;;;14.50;50.50;;;;;;5146433;27;20063;-67
2022/05/01 09:51:43;;;;;;;2.17;1.98;;;14.60;50.50;;;;;;5129112;28;20126;-63
2022/05/01 09:54:09;;;;;;;2.58;2.35;;;14.60;50.40;;;;;;5129184;28;20039;-65
2022/05/01 09:56:59;;;;;;;2.20;2.00;;;14.60;50.40;;;;;;5128810;27;20546;-64
2022/05/01 09:59:27;;;;;;;3.90;1.73;;;14.70;50.50;;;;;;5128640;27;20040;-62
2022/05/01 10:04:35;;;;;;;2.05;1.45;;;14.70;50.20;;;;;;5130340;27;20935;-66
2022/05/01 10:07:02;;;;;;;2.50;1.65;;;14.80;50.20;;;;;;5128982;28;20043;-65
2022/05/01 10:09:29;;;;;;;2.17;1.65;;;14.80;50.00;;;;;;5128866;28;20039;-65
2022/05/01 10:11:58;;;;;;;2.00;1.40;;;14.90;49.80;;;;;;5128931;28;20637;-69
2022/05/01 10:14:24;;;;;;;2.17;1.83;;;14.90;49.70;;;;;;5129041;28;20138;-69
2022/05/01 10:16:50;;;;;;;1.63;1.45;;;14.90;49.60;;;;;;5129113;28;20399;-68
2022/05/01 10:19:21;;;;;;;2.03;1.60;;;14.90;49.60;;;;;;5129006;28;20047;-69
2022/05/01 10:21:48;;;;;;;1.67;1.40;;;15.00;49.60;;;;;;5128703;28;20099;-70
2022/05/01 10:24:16;;;;;;;1.95;1.75;;;15.00;49.50;;;;;;5129088;27;20090;-70
2022/05/01 10:26:52;;;;;;;1.90;1.27;;;15.00;49.40;;;;;;5130487;27;20058;-69
2022/05/01 10:35:21;;;;;;;1.60;1.15;;;15.10;49.40;;;;;;5130086;27;20377;-69
2022/05/01 10:38:23;;;;;;;1.67;1.40;;;15.10;49.20;;;;;;5128827;27;20050;-66
2022/05/01 10:40:58;;;;;;;2.83;1.73;;;15.10;49.20;;;;;;5128943;28;20040;-63
2022/05/01 10:43:29;;;;;;;3.15;1.55;;;15.10;49.20;;;;;;5129015;28;20203;-63
2022/05/01 10:45:59;;;;;;;2.53;1.40;;;15.00;49.30;;;;;;5129116;28;20109;-68
2022/05/01 10:48:41;;;;;;;2.05;1.38;;;15.00;49.40;;;;;;5128718;28;20039;-71
2022/05/01 10:56:52;;;;;;;2.50;1.55;;;14.90;49.60;;;;;;5130309;27;20411;-69
2022/05/01 10:59:34;;;;;;;1.33;1.08;;;14.90;49.60;;;;;;5129146;28;20093;-69
2022/05/01 11:02:04;;;;;;;2.10;1.50;;;14.90;49.60;;;;;;5129245;28;20041;-68
2022/05/01 11:04:38;;;;;;;1.90;1.38;;;14.90;49.60;;;;;;5129134;27;20051;-62
2022/05/01 11:07:05;;;;;;;2.17;1.10;;;14.90;49.50;;;;;;5129123;27;20437;-63
2022/05/01 11:09:34;;;;;;;1.25;1.15;;;14.90;49.50;;;;;;5145977;27;20039;-62
2022/05/01 11:12:01;;;;;;;1.98;1.42;;;14.90;49.50;;;;;;5128775;28;20100;-69
2022/05/01 11:17:12;;;;;;;1.67;1.15;;;14.90;49.50;;;;;;5130269;27;20848;-69
2022/05/01 11:19:50;;;;;;;2.60;1.33;;;15.00;49.40;;;;;;5128800;28;20092;-63
2022/05/01 11:22:16;;;;;;;1.48;1.35;;;14.90;49.40;;;;;;5128734;27;20083;-69
2022/05/01 11:24:43;;;;;;;1.20;0.93;;;14.90;49.40;;;;;;5146123;27;20043;-69
2022/05/01 11:32:51;;;;;;;1.45;1.20;;;14.90;49.40;;;;;;5089485;28;20762;-63
2022/05/01 11:35:17;;;;;;;1.20;0.90;;;14.90;49.40;;;;;;5088052;28;20127;-65
2022/05/01 11:37:48;;;;;;;1.95;1.40;;;14.90;49.40;;;;;;5087396;28;20041;-65
2022/05/01 11:40:20;;;;;;;1.45;0.75;;;14.90;49.60;;;;;;5088182;28;20036;-71
2022/05/01 11:42:47;;;;;;;1.48;0.82;;;14.80;49.20;;;;;;5088242;28;20048;-68
2022/05/01 11:45:12;;;;;;;1.00;0.77;;;14.80;49.20;;;;;;5088317;28;20040;-70
2022/05/01 11:47:40;;;;;;;2.55;0.93;;;14.80;49.30;;;;;;5088169;28;20550;-65
2022/05/01 11:50:07;;;;;;;1.10;1.00;;;14.80;49.30;;;;;;5087873;28;20504;-64
2022/05/01 11:52:41;;;;;;;1.23;0.93;;;14.80;49.30;;;;;;5087556;28;20040;-70
2022/05/01 11:55:08;;;;;;;1.48;1.00;;;14.80;49.30;;;;;;5087788;28;20036;-69
2022/05/01 12:03:09;;;;;;;1.30;0.98;;;14.80;49.20;;;;;;5088643;28;20480;-70
2022/05/01 12:05:45;;;;;;;2.33;1.20;;;14.80;49.20;;;;;;5088814;28;20044;-70
2022/05/01 12:08:11;;;;;;;1.30;0.88;;;14.80;49.10;;;;;;5088918;28;20028;-69
2022/05/01 12:10:41;;;;;;;1.80;0.65;;;14.80;49.10;;;;;;5087673;28;20067;-67
2022/05/01 12:13:27;;;;;;;1.65;0.73;;;14.80;49.10;;;;;;5087444;28;20484;-65
2022/05/01 12:15:54;;;;;;;1.20;0.82;;;14.80;49.70;;;;;;5087394;28;20043;-69
2022/05/01 12:18:24;;;;;;;2.92;1.20;;;14.80;49.00;;;;;;5087231;28;20115;-70
2022/05/01 12:20:50;;;;;;;1.40;0.82;;;14.80;48.90;;;;;;5087286;28;20423;-68
2022/05/01 12:23:18;;;;;;;1.25;0.73;;;14.80;48.90;;;;;;5088458;28;20032;-69
2022/05/01 12:25:48;;;;;;;1.40;0.70;;;14.90;48.90;;;;;;5087395;28;20032;-70
2022/05/01 12:28:15;;;;;;;1.27;0.90;;;14.90;48.80;;;;;;5086999;28;20535;-65
2022/05/01 12:30:42;;;;;;;3.10;1.45;;;14.90;48.80;;;;;;5070234;28;20060;-69
2022/05/01 12:33:17;;;;;;;1.00;0.80;;;14.90;48.80;;;;;;5087174;28;20100;-65
2022/05/01 12:35:53;;;;;;;1.45;0.82;;;14.90;48.70;;;;;;5087291;28;20048;-65
2022/05/01 12:38:20;;;;;;;1.23;0.90;;;15.00;48.60;;;;;;5088272;28;20441;-65
2022/05/01 12:44:03;;;;;;;3.17;1.17;;;15.00;48.50;;;;;;5076336;28;20049;-66
2022/05/01 12:46:36;;;;;;;1.25;0.95;;;15.10;49.20;;;;;;5073057;28;20059;-65
2022/05/01 12:49:02;;;;;;;1.52;0.82;;;15.10;48.40;;;;;;5073536;28;20396;-70
2022/05/01 12:51:41;;;;;;;0.93;0.60;;;15.10;48.40;;;;;;5073258;28;20115;-66
2022/05/01 12:54:09;;;;;;;1.40;0.82;;;15.00;48.30;;;;;;5074418;28;20047;-66
2022/05/01 12:56:34;;;;;;;1.50;0.88;;;15.00;48.40;;;;;;5074410;28;20040;-70
2022/05/01 12:59:24;;;;;;;1.38;0.60;;;15.00;48.40;;;;;;5074264;28;20032;-69
2022/05/01 13:01:49;;;;;;;1.00;0.75;;;15.00;48.50;;;;;;5074201;28;20052;-69
2022/05/01 13:04:24;;;;;;;1.00;0.70;;;15.00;48.50;;;;;;5073206;28;20391;-69
2022/05/01 13:06:50;;;;;;;1.75;1.00;;;15.00;48.50;;;;;;5073189;28;20082;-65
2022/05/01 13:09:16;;;;;;;1.00;0.70;;;14.90;48.50;;;;;;5073174;28;20480;-69
2022/05/01 13:11:58;;;;;;;1.70;0.93;;;14.90;48.50;;;;;;5074030;28;20044;-65
2022/05/01 13:14:30;;;;;;;1.00;0.82;;;15.00;48.60;;;;;;5072691;28;20040;-69
2022/05/01 13:17:08;;;;;;;1.33;0.82;;;14.90;48.50;;;;;;5072773;28;20471;-65
2022/05/01 13:19:38;;;;;;;1.15;0.70;;;15.00;48.50;;;;;;5074364;28;20040;-66
2022/05/01 13:22:07;;;;;;;1.75;1.02;;;15.00;48.50;;;;;;5073917;28;20083;-69
2022/05/01 13:24:35;;;;;;;1.13;0.80;;;15.00;48.40;;;;;;5072561;28;20048;-65
2022/05/01 13:27:08;;;;;;;1.38;0.65;;;15.00;48.30;;;;;;5072802;28;20434;-65
2022/05/01 13:29:36;;;;;;;2.30;0.85;;;15.10;48.30;;;;;;5072431;28;20048;-70
2022/05/01 13:32:06;;;;;;;1.08;0.75;;;15.10;48.20;;;;;;5072274;28;20615;-65
2022/05/01 13:34:33;;;;;;;1.27;0.77;;;15.20;48.10;;;;;;5072221;28;20045;-70
2022/05/01 13:37:00;;;;;;;1.27;0.75;;;15.20;48.00;;;;;;5072461;28;20071;-69
2022/05/01 13:44:44;;;;;;;1.13;0.65;;;15.30;47.90;;;;;;5073549;28;20110;-69
2022/05/01 13:44:58;;;;;;;0.95;0.80;;;15.30;47.70;;;;;;5072224;28;20123;-65
2022/05/01 13:47:24;;;;;;;2.35;1.00;;;15.30;47.70;;;;;;5072318;28;20120;-66